Penmaenmawr, United Kingdom
Current Conditions -  °F | °C
As of 10:50 AM on Sunday 23 Nov 2014 (Local Time) from EGOV Reporting Station
Clear Clear  
Wind Chill: 50°   Ceiling: Unl
Heat Index: 50°   Visibility: 6mi
Dew Point: 39°   Wind: 12mph
Humidity: 66%   Direction: 310°NW
Pressure: 30.09"   Gusts: NA
Location:  53.27°N, 3.92°W
Report Text: EGOV 231050Z AUTO 31010KT 9999 NCD 10/04 Q1019
Loading
Personal Weather Stations






























Interactive Weather Map New forecast layout! Learn more

10-Day Weather Forecast

Advertisements
Track Severe Weather on mobile